Rechercher aéroport 
image banner adimage banner adimage banner ad
image banner ad

55CA - Naval Hospital Heliport

Situé à Oakland, United States

ICAO - 55CA, IATA -

Données fournies par Airmate  

Information générale

Coordonnées: N37°41'40" W121°52'51"
Élévation : 422 feet MSL.
 
Voir autres Aéroports à California

Données opérationnelles

Special qualification required
Heure actuelle UTC:
Heure actuelle locale:
Météo à : KLVK - Livermore Muni ( 5 km )
METAR: KLVK 300053Z 28009KT 10SM CLR 32/08 A2986 RMK AO2 SLP107 T03170083
TAF: KLVK 292339Z 3000/3024 29011KT P6SM FEW180 FM300600 30007KT P6SM FEW180 FM301000 VRB03KT P6SM SCT150 FM302300 29012KT P6SM SCT150
Voir NOTAMs / SUP AIP / TFR affectant cet aéroport [VIEW]
Fréquences de communication: [VIEW]

Pistes:

Coordonnées de l'aéroport

Adresse: Oakland United States

Vue satellite de 55CA